sensor_id;sensor_type;location;lat;lon;timestamp;P1;durP1;ratioP1;P2;durP2;ratioP2
14125;SDS011;7141;49.484;11.242;2023-02-22T00:00:47;7.73;;;5.23;;
14125;SDS011;7141;49.484;11.242;2023-02-22T00:05:43;7.80;;;5.63;;
14125;SDS011;7141;49.484;11.242;2023-02-22T00:08:11;9.27;;;6.27;;
14125;SDS011;7141;49.484;11.242;2023-02-22T00:10:38;8.70;;;6.13;;
14125;SDS011;7141;49.484;11.242;2023-02-22T00:13:05;8.50;;;6.00;;
14125;SDS011;7141;49.484;11.242;2023-02-22T00:15:31;8.23;;;5.80;;
14125;SDS011;7141;49.484;11.242;2023-02-22T00:17:57;9.47;;;5.63;;
14125;SDS011;7141;49.484;11.242;2023-02-22T00:20:24;9.77;;;5.87;;
14125;SDS011;7141;49.484;11.242;2023-02-22T00:22:50;8.57;;;5.93;;
14125;SDS011;7141;49.484;11.242;2023-02-22T00:25:18;13.00;;;6.40;;
14125;SDS011;7141;49.484;11.242;2023-02-22T00:27:45;11.43;;;6.20;;
14125;SDS011;7141;49.484;11.242;2023-02-22T00:30:18;10.57;;;5.93;;
14125;SDS011;7141;49.484;11.242;2023-02-22T00:32:45;8.77;;;5.70;;
14125;SDS011;7141;49.484;11.242;2023-02-22T00:35:15;9.20;;;5.80;;
14125;SDS011;7141;49.484;11.242;2023-02-22T00:37:41;10.33;;;6.20;;
14125;SDS011;7141;49.484;11.242;2023-02-22T00:40:08;10.27;;;6.03;;
14125;SDS011;7141;49.484;11.242;2023-02-22T00:42:35;12.83;;;5.97;;
14125;SDS011;7141;49.484;11.242;2023-02-22T00:45:01;11.33;;;6.33;;
14125;SDS011;7141;49.484;11.242;2023-02-22T00:47:27;11.13;;;5.83;;
14125;SDS011;7141;49.484;11.242;2023-02-22T00:49:54;12.90;;;5.80;;
14125;SDS011;7141;49.484;11.242;2023-02-22T00:52:20;9.23;;;5.80;;
14125;SDS011;7141;49.484;11.242;2023-02-22T00:54:46;8.40;;;5.50;;
14125;SDS011;7141;49.484;11.242;2023-02-22T00:57:12;9.80;;;5.87;;
14125;SDS011;7141;49.484;11.242;2023-02-22T00:59:38;11.53;;;6.10;;
14125;SDS011;7141;49.484;11.242;2023-02-22T01:02:04;9.33;;;5.60;;
14125;SDS011;7141;49.484;11.242;2023-02-22T01:04:30;9.23;;;5.40;;
14125;SDS011;7141;49.484;11.242;2023-02-22T01:06:56;7.30;;;5.37;;
14125;SDS011;7141;49.484;11.242;2023-02-22T01:09:24;10.47;;;5.87;;
14125;SDS011;7141;49.484;11.242;2023-02-22T01:11:53;11.53;;;5.93;;
14125;SDS011;7141;49.484;11.242;2023-02-22T01:14:20;8.27;;;5.07;;
14125;SDS011;7141;49.484;11.242;2023-02-22T01:16:47;9.40;;;6.07;;
14125;SDS011;7141;49.484;11.242;2023-02-22T01:19:14;8.70;;;6.03;;
14125;SDS011;7141;49.484;11.242;2023-02-22T01:21:40;7.87;;;5.40;;
14125;SDS011;7141;49.484;11.242;2023-02-22T01:24:06;10.03;;;5.97;;
14125;SDS011;7141;49.484;11.242;2023-02-22T01:26:32;11.43;;;5.37;;
14125;SDS011;7141;49.484;11.242;2023-02-22T01:28:58;12.27;;;6.47;;
14125;SDS011;7141;49.484;11.242;2023-02-22T01:31:24;9.40;;;6.30;;
14125;SDS011;7141;49.484;11.242;2023-02-22T01:33:50;9.83;;;5.93;;
14125;SDS011;7141;49.484;11.242;2023-02-22T01:36:16;8.67;;;5.33;;
14125;SDS011;7141;49.484;11.242;2023-02-22T01:38:43;8.13;;;4.93;;
14125;SDS011;7141;49.484;11.242;2023-02-22T01:41:09;9.63;;;5.43;;
14125;SDS011;7141;49.484;11.242;2023-02-22T01:43:36;9.13;;;5.53;;
14125;SDS011;7141;49.484;11.242;2023-02-22T01:46:06;8.50;;;4.80;;
14125;SDS011;7141;49.484;11.242;2023-02-22T01:51:17;9.27;;;5.40;;
14125;SDS011;7141;49.484;11.242;2023-02-22T01:53:46;10.53;;;5.40;;
14125;SDS011;7141;49.484;11.242;2023-02-22T01:56:13;6.77;;;4.70;;
14125;SDS011;7141;49.484;11.242;2023-02-22T01:58:40;7.97;;;4.33;;
14125;SDS011;7141;49.484;11.242;2023-02-22T02:01:07;6.37;;;4.40;;
14125;SDS011;7141;49.484;11.242;2023-02-22T02:03:34;14.00;;;4.27;;
14125;SDS011;7141;49.484;11.242;2023-02-22T02:06:01;7.80;;;4.80;;
14125;SDS011;7141;49.484;11.242;2023-02-22T02:08:30;7.47;;;4.77;;
14125;SDS011;7141;49.484;11.242;2023-02-22T02:11:00;6.43;;;4.20;;
14125;SDS011;7141;49.484;11.242;2023-02-22T02:13:26;7.70;;;4.50;;
14125;SDS011;7141;49.484;11.242;2023-02-22T02:15:53;7.03;;;4.60;;
14125;SDS011;7141;49.484;11.242;2023-02-22T02:18:20;6.97;;;4.70;;
14125;SDS011;7141;49.484;11.242;2023-02-22T02:23:28;6.67;;;4.63;;
14125;SDS011;7141;49.484;11.242;2023-02-22T02:26:09;9.97;;;5.00;;
14125;SDS011;7141;49.484;11.242;2023-02-22T02:28:59;6.97;;;4.50;;
14125;SDS011;7141;49.484;11.242;2023-02-22T02:34:26;6.70;;;4.30;;
14125;SDS011;7141;49.484;11.242;2023-02-22T02:39:40;7.60;;;3.90;;
14125;SDS011;7141;49.484;11.242;2023-02-22T02:42:10;8.70;;;4.07;;
14125;SDS011;7141;49.484;11.242;2023-02-22T02:44:48;10.23;;;4.10;;
14125;SDS011;7141;49.484;11.242;2023-02-22T02:47:20;8.73;;;4.30;;
14125;SDS011;7141;49.484;11.242;2023-02-22T02:52:32;7.57;;;4.50;;
14125;SDS011;7141;49.484;11.242;2023-02-22T02:54:58;8.27;;;4.33;;
14125;SDS011;7141;49.484;11.242;2023-02-22T02:57:25;6.53;;;4.27;;
14125;SDS011;7141;49.484;11.242;2023-02-22T02:59:51;6.03;;;3.80;;
14125;SDS011;7141;49.484;11.242;2023-02-22T03:07:30;6.20;;;3.80;;
14125;SDS011;7141;49.484;11.242;2023-02-22T03:15:33;8.80;;;4.23;;
14125;SDS011;7141;49.484;11.242;2023-02-22T03:18:01;10.70;;;4.00;;
14125;SDS011;7141;49.484;11.242;2023-02-22T03:20:35;7.17;;;4.10;;
14125;SDS011;7141;49.484;11.242;2023-02-22T03:23:06;7.77;;;4.43;;
14125;SDS011;7141;49.484;11.242;2023-02-22T03:25:37;4.97;;;3.90;;
14125;SDS011;7141;49.484;11.242;2023-02-22T03:28:06;7.30;;;4.23;;
14125;SDS011;7141;49.484;11.242;2023-02-22T03:30:39;6.93;;;4.13;;
14125;SDS011;7141;49.484;11.242;2023-02-22T03:33:12;6.27;;;3.90;;
14125;SDS011;7141;49.484;11.242;2023-02-22T03:35:41;7.60;;;4.03;;
14125;SDS011;7141;49.484;11.242;2023-02-22T03:38:10;8.53;;;4.23;;
14125;SDS011;7141;49.484;11.242;2023-02-22T03:40:42;6.33;;;4.20;;
14125;SDS011;7141;49.484;11.242;2023-02-22T03:43:12;5.93;;;4.27;;
14125;SDS011;7141;49.484;11.242;2023-02-22T03:45:39;6.43;;;4.20;;
14125;SDS011;7141;49.484;11.242;2023-02-22T03:48:10;6.47;;;3.90;;
14125;SDS011;7141;49.484;11.242;2023-02-22T03:50:39;6.00;;;4.00;;
14125;SDS011;7141;49.484;11.242;2023-02-22T03:53:05;5.77;;;3.87;;
14125;SDS011;7141;49.484;11.242;2023-02-22T03:55:31;5.70;;;3.93;;
14125;SDS011;7141;49.484;11.242;2023-02-22T03:57:58;5.83;;;3.77;;
14125;SDS011;7141;49.484;11.242;2023-02-22T04:00:26;5.50;;;3.80;;
14125;SDS011;7141;49.484;11.242;2023-02-22T04:02:53;5.57;;;3.93;;
14125;SDS011;7141;49.484;11.242;2023-02-22T04:05:19;6.37;;;4.03;;
14125;SDS011;7141;49.484;11.242;2023-02-22T04:07:46;6.13;;;4.10;;
14125;SDS011;7141;49.484;11.242;2023-02-22T04:10:12;4.73;;;3.83;;
14125;SDS011;7141;49.484;11.242;2023-02-22T04:12:39;7.90;;;4.03;;
14125;SDS011;7141;49.484;11.242;2023-02-22T04:15:06;8.57;;;4.73;;
14125;SDS011;7141;49.484;11.242;2023-02-22T04:17:32;5.40;;;3.97;;
14125;SDS011;7141;49.484;11.242;2023-02-22T04:19:58;9.27;;;4.90;;
14125;SDS011;7141;49.484;11.242;2023-02-22T04:22:24;6.13;;;4.30;;
14125;SDS011;7141;49.484;11.242;2023-02-22T04:24:50;6.03;;;4.30;;
14125;SDS011;7141;49.484;11.242;2023-02-22T04:27:17;7.73;;;4.23;;
14125;SDS011;7141;49.484;11.242;2023-02-22T04:29:43;7.40;;;4.17;;
14125;SDS011;7141;49.484;11.242;2023-02-22T04:32:09;5.73;;;4.20;;
14125;SDS011;7141;49.484;11.242;2023-02-22T04:34:35;9.93;;;4.57;;
14125;SDS011;7141;49.484;11.242;2023-02-22T04:37:01;5.67;;;4.47;;
14125;SDS011;7141;49.484;11.242;2023-02-22T04:39:27;5.57;;;4.00;;
14125;SDS011;7141;49.484;11.242;2023-02-22T04:41:53;9.07;;;4.00;;
14125;SDS011;7141;49.484;11.242;2023-02-22T04:44:20;8.80;;;4.27;;
14125;SDS011;7141;49.484;11.242;2023-02-22T04:46:45;9.50;;;5.40;;
14125;SDS011;7141;49.484;11.242;2023-02-22T04:49:11;7.33;;;5.30;;
14125;SDS011;7141;49.484;11.242;2023-02-22T04:51:37;7.00;;;4.40;;
14125;SDS011;7141;49.484;11.242;2023-02-22T04:54:05;5.10;;;3.53;;
14125;SDS011;7141;49.484;11.242;2023-02-22T04:56:31;6.97;;;4.70;;
14125;SDS011;7141;49.484;11.242;2023-02-22T04:58:57;8.73;;;4.90;;
14125;SDS011;7141;49.484;11.242;2023-02-22T05:01:23;6.97;;;5.07;;
14125;SDS011;7141;49.484;11.242;2023-02-22T05:03:49;7.93;;;5.10;;
14125;SDS011;7141;49.484;11.242;2023-02-22T05:06:15;9.03;;;4.20;;
14125;SDS011;7141;49.484;11.242;2023-02-22T05:08:41;6.40;;;3.93;;
14125;SDS011;7141;49.484;11.242;2023-02-22T05:11:07;6.43;;;4.30;;
14125;SDS011;7141;49.484;11.242;2023-02-22T05:13:33;5.63;;;3.93;;
14125;SDS011;7141;49.484;11.242;2023-02-22T05:15:59;7.73;;;4.77;;
14125;SDS011;7141;49.484;11.242;2023-02-22T05:18:26;8.10;;;4.33;;
14125;SDS011;7141;49.484;11.242;2023-02-22T05:20:52;7.23;;;4.30;;
14125;SDS011;7141;49.484;11.242;2023-02-22T05:23:18;5.87;;;3.80;;
14125;SDS011;7141;49.484;11.242;2023-02-22T05:25:44;6.53;;;4.50;;
14125;SDS011;7141;49.484;11.242;2023-02-22T05:28:10;8.33;;;4.87;;
14125;SDS011;7141;49.484;11.242;2023-02-22T05:30:37;8.97;;;4.17;;
14125;SDS011;7141;49.484;11.242;2023-02-22T05:33:06;5.07;;;4.03;;
14125;SDS011;7141;49.484;11.242;2023-02-22T05:35:33;6.17;;;3.90;;
14125;SDS011;7141;49.484;11.242;2023-02-22T05:38:01;5.70;;;4.00;;
14125;SDS011;7141;49.484;11.242;2023-02-22T05:40:27;6.93;;;4.43;;
14125;SDS011;7141;49.484;11.242;2023-02-22T05:42:53;7.03;;;4.43;;
14125;SDS011;7141;49.484;11.242;2023-02-22T05:45:21;5.17;;;3.90;;
14125;SDS011;7141;49.484;11.242;2023-02-22T05:47:48;7.50;;;4.30;;
14125;SDS011;7141;49.484;11.242;2023-02-22T05:50:15;7.10;;;4.17;;
14125;SDS011;7141;49.484;11.242;2023-02-22T05:52:41;5.70;;;4.17;;
14125;SDS011;7141;49.484;11.242;2023-02-22T05:55:08;5.80;;;4.30;;
14125;SDS011;7141;49.484;11.242;2023-02-22T05:57:34;10.00;;;5.10;;
14125;SDS011;7141;49.484;11.242;2023-02-22T06:00:00;10.93;;;4.73;;
14125;SDS011;7141;49.484;11.242;2023-02-22T06:02:26;10.47;;;5.57;;
14125;SDS011;7141;49.484;11.242;2023-02-22T06:04:52;13.10;;;6.07;;
14125;SDS011;7141;49.484;11.242;2023-02-22T06:07:18;9.53;;;5.80;;
14125;SDS011;7141;49.484;11.242;2023-02-22T06:09:44;10.77;;;6.50;;
14125;SDS011;7141;49.484;11.242;2023-02-22T06:12:10;7.70;;;5.47;;
14125;SDS011;7141;49.484;11.242;2023-02-22T06:14:36;10.77;;;6.10;;
14125;SDS011;7141;49.484;11.242;2023-02-22T06:17:02;11.60;;;7.63;;
14125;SDS011;7141;49.484;11.242;2023-02-22T06:19:29;12.13;;;7.37;;
14125;SDS011;7141;49.484;11.242;2023-02-22T06:21:56;9.77;;;5.87;;
14125;SDS011;7141;49.484;11.242;2023-02-22T06:24:24;10.90;;;5.50;;
14125;SDS011;7141;49.484;11.242;2023-02-22T06:26:57;7.23;;;5.80;;
14125;SDS011;7141;49.484;11.242;2023-02-22T06:29:23;9.00;;;5.73;;
14125;SDS011;7141;49.484;11.242;2023-02-22T06:31:49;8.30;;;6.23;;
14125;SDS011;7141;49.484;11.242;2023-02-22T06:34:15;10.97;;;6.27;;
14125;SDS011;7141;49.484;11.242;2023-02-22T06:36:42;10.47;;;5.47;;
14125;SDS011;7141;49.484;11.242;2023-02-22T06:39:08;8.87;;;6.07;;
14125;SDS011;7141;49.484;11.242;2023-02-22T06:41:38;10.80;;;6.20;;
14125;SDS011;7141;49.484;11.242;2023-02-22T06:44:04;9.80;;;5.90;;
14125;SDS011;7141;49.484;11.242;2023-02-22T06:46:30;9.53;;;5.77;;
14125;SDS011;7141;49.484;11.242;2023-02-22T06:48:56;10.63;;;5.83;;
14125;SDS011;7141;49.484;11.242;2023-02-22T06:51:24;10.43;;;7.03;;
14125;SDS011;7141;49.484;11.242;2023-02-22T06:53:50;10.30;;;6.37;;
14125;SDS011;7141;49.484;11.242;2023-02-22T06:56:16;9.00;;;6.77;;
14125;SDS011;7141;49.484;11.242;2023-02-22T06:58:42;8.47;;;6.70;;
14125;SDS011;7141;49.484;11.242;2023-02-22T07:01:08;10.70;;;6.70;;
14125;SDS011;7141;49.484;11.242;2023-02-22T07:03:34;11.13;;;6.90;;
14125;SDS011;7141;49.484;11.242;2023-02-22T07:06:01;10.60;;;7.33;;
14125;SDS011;7141;49.484;11.242;2023-02-22T07:08:28;12.00;;;7.13;;
14125;SDS011;7141;49.484;11.242;2023-02-22T07:10:54;11.53;;;8.13;;
14125;SDS011;7141;49.484;11.242;2023-02-22T07:13:20;13.07;;;8.40;;
14125;SDS011;7141;49.484;11.242;2023-02-22T07:15:46;10.67;;;7.07;;
14125;SDS011;7141;49.484;11.242;2023-02-22T07:18:12;11.93;;;6.57;;
14125;SDS011;7141;49.484;11.242;2023-02-22T07:20:39;12.93;;;6.27;;
14125;SDS011;7141;49.484;11.242;2023-02-22T07:23:05;10.03;;;6.83;;
14125;SDS011;7141;49.484;11.242;2023-02-22T07:25:31;11.03;;;7.30;;
14125;SDS011;7141;49.484;11.242;2023-02-22T07:27:57;9.83;;;6.43;;
14125;SDS011;7141;49.484;11.242;2023-02-22T07:30:25;13.83;;;7.97;;
14125;SDS011;7141;49.484;11.242;2023-02-22T07:32:54;11.70;;;7.00;;
14125;SDS011;7141;49.484;11.242;2023-02-22T07:35:30;10.40;;;7.00;;
14125;SDS011;7141;49.484;11.242;2023-02-22T07:37:56;11.53;;;7.60;;
14125;SDS011;7141;49.484;11.242;2023-02-22T07:40:23;13.70;;;7.73;;
14125;SDS011;7141;49.484;11.242;2023-02-22T07:42:59;14.70;;;8.10;;
14125;SDS011;7141;49.484;11.242;2023-02-22T07:45:29;11.90;;;8.43;;
14125;SDS011;7141;49.484;11.242;2023-02-22T07:47:56;11.80;;;8.10;;
14125;SDS011;7141;49.484;11.242;2023-02-22T07:50:22;13.80;;;8.63;;
14125;SDS011;7141;49.484;11.242;2023-02-22T07:52:50;13.37;;;9.30;;
14125;SDS011;7141;49.484;11.242;2023-02-22T07:55:17;16.20;;;9.20;;
14125;SDS011;7141;49.484;11.242;2023-02-22T07:57:44;12.13;;;8.67;;
14125;SDS011;7141;49.484;11.242;2023-02-22T08:00:11;12.13;;;9.10;;
14125;SDS011;7141;49.484;11.242;2023-02-22T08:02:38;12.73;;;8.83;;
14125;SDS011;7141;49.484;11.242;2023-02-22T08:05:05;18.40;;;10.23;;
14125;SDS011;7141;49.484;11.242;2023-02-22T08:07:31;13.17;;;9.10;;
14125;SDS011;7141;49.484;11.242;2023-02-22T08:09:57;17.20;;;9.43;;
14125;SDS011;7141;49.484;11.242;2023-02-22T08:12:23;13.70;;;9.17;;
14125;SDS011;7141;49.484;11.242;2023-02-22T08:14:49;12.13;;;8.77;;
14125;SDS011;7141;49.484;11.242;2023-02-22T08:17:15;15.30;;;10.20;;
14125;SDS011;7141;49.484;11.242;2023-02-22T08:19:41;18.53;;;10.67;;
14125;SDS011;7141;49.484;11.242;2023-02-22T08:22:07;24.83;;;14.33;;
14125;SDS011;7141;49.484;11.242;2023-02-22T08:24:33;26.60;;;16.47;;
14125;SDS011;7141;49.484;11.242;2023-02-22T08:26:59;21.10;;;14.50;;
14125;SDS011;7141;49.484;11.242;2023-02-22T08:29:25;17.70;;;12.20;;
14125;SDS011;7141;49.484;11.242;2023-02-22T08:31:57;13.73;;;10.90;;
14125;SDS011;7141;49.484;11.242;2023-02-22T08:34:23;14.83;;;11.60;;
14125;SDS011;7141;49.484;11.242;2023-02-22T08:36:49;16.73;;;10.07;;
14125;SDS011;7141;49.484;11.242;2023-02-22T08:39:15;16.10;;;10.40;;
14125;SDS011;7141;49.484;11.242;2023-02-22T08:41:41;17.67;;;11.37;;
14125;SDS011;7141;49.484;11.242;2023-02-22T08:44:07;13.87;;;10.33;;
14125;SDS011;7141;49.484;11.242;2023-02-22T08:46:33;19.57;;;10.80;;
14125;SDS011;7141;49.484;11.242;2023-02-22T08:48:59;14.47;;;10.50;;
14125;SDS011;7141;49.484;11.242;2023-02-22T08:51:26;14.97;;;10.80;;
14125;SDS011;7141;49.484;11.242;2023-02-22T08:53:52;13.27;;;10.00;;
14125;SDS011;7141;49.484;11.242;2023-02-22T08:56:18;14.73;;;10.60;;
14125;SDS011;7141;49.484;11.242;2023-02-22T08:58:44;15.03;;;11.13;;
14125;SDS011;7141;49.484;11.242;2023-02-22T09:01:10;12.93;;;9.87;;
14125;SDS011;7141;49.484;11.242;2023-02-22T09:03:38;11.70;;;9.63;;
14125;SDS011;7141;49.484;11.242;2023-02-22T09:06:04;11.80;;;9.67;;
14125;SDS011;7141;49.484;11.242;2023-02-22T09:08:31;12.93;;;9.20;;
14125;SDS011;7141;49.484;11.242;2023-02-22T09:10:57;10.80;;;9.00;;
14125;SDS011;7141;49.484;11.242;2023-02-22T09:13:23;11.10;;;8.63;;
14125;SDS011;7141;49.484;11.242;2023-02-22T09:15:49;13.07;;;9.33;;
14125;SDS011;7141;49.484;11.242;2023-02-22T09:18:15;12.73;;;8.77;;
14125;SDS011;7141;49.484;11.242;2023-02-22T09:20:42;10.60;;;8.27;;
14125;SDS011;7141;49.484;11.242;2023-02-22T09:23:08;10.63;;;8.07;;
14125;SDS011;7141;49.484;11.242;2023-02-22T09:25:34;13.87;;;8.83;;
14125;SDS011;7141;49.484;11.242;2023-02-22T09:28:00;10.20;;;7.87;;
14125;SDS011;7141;49.484;11.242;2023-02-22T09:30:28;9.33;;;7.90;;
14125;SDS011;7141;49.484;11.242;2023-02-22T09:32:59;10.13;;;7.67;;
14125;SDS011;7141;49.484;11.242;2023-02-22T09:35:25;10.73;;;7.30;;
14125;SDS011;7141;49.484;11.242;2023-02-22T09:37:55;9.27;;;7.67;;
14125;SDS011;7141;49.484;11.242;2023-02-22T09:40:22;13.83;;;7.83;;
14125;SDS011;7141;49.484;11.242;2023-02-22T09:43:06;11.27;;;7.80;;
14125;SDS011;7141;49.484;11.242;2023-02-22T09:48:12;10.10;;;8.10;;
14125;SDS011;7141;49.484;11.242;2023-02-22T09:50:40;9.77;;;7.10;;
14125;SDS011;7141;49.484;11.242;2023-02-22T09:55:37;9.83;;;7.77;;
14125;SDS011;7141;49.484;11.242;2023-02-22T09:58:07;10.03;;;7.40;;
14125;SDS011;7141;49.484;11.242;2023-02-22T10:00:36;9.03;;;7.73;;
14125;SDS011;7141;49.484;11.242;2023-02-22T10:03:24;8.33;;;7.27;;
14125;SDS011;7141;49.484;11.242;2023-02-22T10:06:11;8.90;;;7.50;;
14125;SDS011;7141;49.484;11.242;2023-02-22T10:08:41;8.53;;;7.10;;
14125;SDS011;7141;49.484;11.242;2023-02-22T10:16:35;8.13;;;6.43;;
14125;SDS011;7141;49.484;11.242;2023-02-22T10:19:26;8.30;;;6.77;;
14125;SDS011;7141;49.484;11.242;2023-02-22T10:22:05;8.13;;;6.80;;
14125;SDS011;7141;49.484;11.242;2023-02-22T10:24:36;9.63;;;6.80;;
14125;SDS011;7141;49.484;11.242;2023-02-22T10:27:05;9.07;;;6.70;;
14125;SDS011;7141;49.484;11.242;2023-02-22T10:32:02;8.90;;;6.43;;
14125;SDS011;7141;49.484;11.242;2023-02-22T10:34:29;7.73;;;6.00;;
14125;SDS011;7141;49.484;11.242;2023-02-22T10:36:58;9.83;;;6.47;;
14125;SDS011;7141;49.484;11.242;2023-02-22T10:39:32;7.97;;;5.80;;
14125;SDS011;7141;49.484;11.242;2023-02-22T10:42:00;8.77;;;6.40;;
14125;SDS011;7141;49.484;11.242;2023-02-22T10:44:30;7.00;;;5.17;;
14125;SDS011;7141;49.484;11.242;2023-02-22T10:46:57;7.73;;;5.63;;
14125;SDS011;7141;49.484;11.242;2023-02-22T10:49:33;7.83;;;4.83;;
14125;SDS011;7141;49.484;11.242;2023-02-22T10:52:00;7.23;;;5.37;;
14125;SDS011;7141;49.484;11.242;2023-02-22T10:54:28;7.80;;;4.83;;
14125;SDS011;7141;49.484;11.242;2023-02-22T10:56:55;7.70;;;5.37;;
14125;SDS011;7141;49.484;11.242;2023-02-22T10:59:29;8.40;;;5.17;;
14125;SDS011;7141;49.484;11.242;2023-02-22T11:01:56;7.90;;;5.23;;
14125;SDS011;7141;49.484;11.242;2023-02-22T11:04:22;7.67;;;5.30;;
14125;SDS011;7141;49.484;11.242;2023-02-22T11:07:05;10.33;;;5.80;;
14125;SDS011;7141;49.484;11.242;2023-02-22T11:09:41;5.93;;;4.90;;
14125;SDS011;7141;49.484;11.242;2023-02-22T11:12:14;5.60;;;4.87;;
14125;SDS011;7141;49.484;11.242;2023-02-22T11:14:41;6.63;;;4.60;;
14125;SDS011;7141;49.484;11.242;2023-02-22T11:17:07;6.43;;;4.90;;
14125;SDS011;7141;49.484;11.242;2023-02-22T11:19:35;7.30;;;4.97;;
14125;SDS011;7141;49.484;11.242;2023-02-22T11:24:28;7.07;;;4.23;;
14125;SDS011;7141;49.484;11.242;2023-02-22T11:26:57;6.50;;;4.17;;
14125;SDS011;7141;49.484;11.242;2023-02-22T11:29:31;6.30;;;4.27;;
14125;SDS011;7141;49.484;11.242;2023-02-22T11:32:00;4.37;;;3.97;;
14125;SDS011;7141;49.484;11.242;2023-02-22T11:34:28;5.33;;;3.87;;
14125;SDS011;7141;49.484;11.242;2023-02-22T11:36:55;6.90;;;4.27;;
14125;SDS011;7141;49.484;11.242;2023-02-22T11:39:26;7.60;;;4.10;;
14125;SDS011;7141;49.484;11.242;2023-02-22T11:41:54;6.57;;;4.47;;
14125;SDS011;7141;49.484;11.242;2023-02-22T11:44:28;5.87;;;4.37;;
14125;SDS011;7141;49.484;11.242;2023-02-22T11:46:54;7.50;;;4.70;;
14125;SDS011;7141;49.484;11.242;2023-02-22T11:49:30;4.80;;;4.30;;
14125;SDS011;7141;49.484;11.242;2023-02-22T12:00:11;4.70;;;2.87;;
14125;SDS011;7141;49.484;11.242;2023-02-22T12:07:48;4.30;;;3.63;;
14125;SDS011;7141;49.484;11.242;2023-02-22T12:17:53;2.87;;;2.57;;
14125;SDS011;7141;49.484;11.242;2023-02-22T12:20:56;6.13;;;3.47;;
14125;SDS011;7141;49.484;11.242;2023-02-22T12:23:19;3.93;;;2.93;;
14125;SDS011;7141;49.484;11.242;2023-02-22T12:25:56;4.77;;;2.70;;
14125;SDS011;7141;49.484;11.242;2023-02-22T12:28:29;3.67;;;2.63;;
14125;SDS011;7141;49.484;11.242;2023-02-22T12:31:02;8.73;;;2.57;;
14125;SDS011;7141;49.484;11.242;2023-02-22T12:33:32;3.20;;;2.60;;
14125;SDS011;7141;49.484;11.242;2023-02-22T12:36:01;4.73;;;2.57;;
14125;SDS011;7141;49.484;11.242;2023-02-22T12:38:29;4.60;;;2.50;;
14125;SDS011;7141;49.484;11.242;2023-02-22T12:41:00;3.53;;;2.57;;
14125;SDS011;7141;49.484;11.242;2023-02-22T12:46:20;4.83;;;2.80;;
14125;SDS011;7141;49.484;11.242;2023-02-22T12:54:08;4.07;;;2.30;;
14125;SDS011;7141;49.484;11.242;2023-02-22T12:56:38;2.50;;;2.20;;
14125;SDS011;7141;49.484;11.242;2023-02-22T12:59:09;3.03;;;2.10;;
14125;SDS011;7141;49.484;11.242;2023-02-22T13:01:38;3.80;;;1.90;;
14125;SDS011;7141;49.484;11.242;2023-02-22T13:04:05;3.07;;;2.23;;
14125;SDS011;7141;49.484;11.242;2023-02-22T13:06:54;5.63;;;2.10;;
14125;SDS011;7141;49.484;11.242;2023-02-22T13:09:37;2.63;;;2.00;;
14125;SDS011;7141;49.484;11.242;2023-02-22T13:14:34;2.37;;;1.83;;
14125;SDS011;7141;49.484;11.242;2023-02-22T13:17:23;11.70;;;7.83;;
14125;SDS011;7141;49.484;11.242;2023-02-22T13:20:01;3.47;;;2.23;;
14125;SDS011;7141;49.484;11.242;2023-02-22T13:30:17;2.33;;;1.80;;
14125;SDS011;7141;49.484;11.242;2023-02-22T13:33:07;2.73;;;1.70;;
14125;SDS011;7141;49.484;11.242;2023-02-22T13:35:41;2.67;;;2.00;;
14125;SDS011;7141;49.484;11.242;2023-02-22T13:38:18;2.97;;;2.07;;
14125;SDS011;7141;49.484;11.242;2023-02-22T13:54:00;2.83;;;2.00;;
14125;SDS011;7141;49.484;11.242;2023-02-22T13:56:27;3.03;;;1.90;;
14125;SDS011;7141;49.484;11.242;2023-02-22T13:58:56;2.70;;;1.97;;
14125;SDS011;7141;49.484;11.242;2023-02-22T14:02:04;5.13;;;2.27;;
14125;SDS011;7141;49.484;11.242;2023-02-22T14:04:23;4.43;;;2.43;;
14125;SDS011;7141;49.484;11.242;2023-02-22T14:06:57;3.37;;;2.20;;
14125;SDS011;7141;49.484;11.242;2023-02-22T14:17:36;4.70;;;2.70;;
14125;SDS011;7141;49.484;11.242;2023-02-22T14:20:04;3.87;;;2.80;;
14125;SDS011;7141;49.484;11.242;2023-02-22T14:22:38;3.10;;;2.73;;
14125;SDS011;7141;49.484;11.242;2023-02-22T14:25:05;2.57;;;2.23;;
14125;SDS011;7141;49.484;11.242;2023-02-22T14:27:40;2.40;;;2.17;;
14125;SDS011;7141;49.484;11.242;2023-02-22T14:30:06;3.23;;;2.50;;
14125;SDS011;7141;49.484;11.242;2023-02-22T14:32:33;5.67;;;2.23;;
14125;SDS011;7141;49.484;11.242;2023-02-22T14:35:00;3.13;;;2.50;;
14125;SDS011;7141;49.484;11.242;2023-02-22T14:37:32;5.37;;;2.87;;
14125;SDS011;7141;49.484;11.242;2023-02-22T14:40:42;3.13;;;2.80;;
14125;SDS011;7141;49.484;11.242;2023-02-22T14:43:03;6.40;;;3.43;;
14125;SDS011;7141;49.484;11.242;2023-02-22T14:45:31;5.33;;;3.37;;
14125;SDS011;7141;49.484;11.242;2023-02-22T14:55:42;13.20;;;5.20;;
14125;SDS011;7141;49.484;11.242;2023-02-22T14:58:14;13.77;;;5.83;;
14125;SDS011;7141;49.484;11.242;2023-02-22T15:00:51;7.80;;;4.00;;
14125;SDS011;7141;49.484;11.242;2023-02-22T15:03:28;13.20;;;5.13;;
14125;SDS011;7141;49.484;11.242;2023-02-22T15:06:20;5.73;;;2.97;;
14125;SDS011;7141;49.484;11.242;2023-02-22T15:08:46;8.03;;;3.40;;
14125;SDS011;7141;49.484;11.242;2023-02-22T15:13:49;21.40;;;7.60;;
14125;SDS011;7141;49.484;11.242;2023-02-22T15:16:15;16.67;;;6.33;;
14125;SDS011;7141;49.484;11.242;2023-02-22T15:18:42;9.27;;;4.23;;
14125;SDS011;7141;49.484;11.242;2023-02-22T15:21:11;7.27;;;4.10;;
14125;SDS011;7141;49.484;11.242;2023-02-22T15:23:53;6.77;;;3.53;;
14125;SDS011;7141;49.484;11.242;2023-02-22T15:26:22;5.23;;;3.73;;
14125;SDS011;7141;49.484;11.242;2023-02-22T15:28:56;5.90;;;4.00;;
14125;SDS011;7141;49.484;11.242;2023-02-22T15:33:49;4.80;;;3.53;;
14125;SDS011;7141;49.484;11.242;2023-02-22T15:36:17;5.37;;;3.40;;
14125;SDS011;7141;49.484;11.242;2023-02-22T15:38:50;5.20;;;3.13;;
14125;SDS011;7141;49.484;11.242;2023-02-22T15:41:25;8.77;;;3.90;;
14125;SDS011;7141;49.484;11.242;2023-02-22T15:43:58;5.40;;;2.97;;
14125;SDS011;7141;49.484;11.242;2023-02-22T15:46:24;5.20;;;2.87;;
14125;SDS011;7141;49.484;11.242;2023-02-22T15:49:03;3.93;;;2.63;;
14125;SDS011;7141;49.484;11.242;2023-02-22T15:51:29;3.67;;;2.37;;
14125;SDS011;7141;49.484;11.242;2023-02-22T15:53:57;3.33;;;2.30;;
14125;SDS011;7141;49.484;11.242;2023-02-22T15:56:26;4.57;;;2.87;;
14125;SDS011;7141;49.484;11.242;2023-02-22T15:58:59;5.17;;;2.47;;
14125;SDS011;7141;49.484;11.242;2023-02-22T16:01:27;5.57;;;2.43;;
14125;SDS011;7141;49.484;11.242;2023-02-22T16:03:57;2.67;;;2.37;;
14125;SDS011;7141;49.484;11.242;2023-02-22T16:08:52;3.30;;;2.47;;
14125;SDS011;7141;49.484;11.242;2023-02-22T16:11:23;3.90;;;2.27;;
14125;SDS011;7141;49.484;11.242;2023-02-22T16:13:58;3.63;;;2.37;;
14125;SDS011;7141;49.484;11.242;2023-02-22T16:16:26;5.30;;;2.33;;
14125;SDS011;7141;49.484;11.242;2023-02-22T16:19:23;4.10;;;2.43;;
14125;SDS011;7141;49.484;11.242;2023-02-22T16:21:49;2.80;;;2.20;;
14125;SDS011;7141;49.484;11.242;2023-02-22T16:24:27;4.70;;;3.57;;
14125;SDS011;7141;49.484;11.242;2023-02-22T16:27:27;3.40;;;2.50;;
14125;SDS011;7141;49.484;11.242;2023-02-22T16:30:03;3.27;;;2.40;;
14125;SDS011;7141;49.484;11.242;2023-02-22T16:32:29;4.67;;;2.20;;
14125;SDS011;7141;49.484;11.242;2023-02-22T16:34:55;3.20;;;2.77;;
14125;SDS011;7141;49.484;11.242;2023-02-22T16:37:21;4.17;;;2.73;;
14125;SDS011;7141;49.484;11.242;2023-02-22T16:39:48;4.37;;;2.83;;
14125;SDS011;7141;49.484;11.242;2023-02-22T16:42:17;3.10;;;2.57;;
14125;SDS011;7141;49.484;11.242;2023-02-22T16:44:51;3.80;;;2.77;;
14125;SDS011;7141;49.484;11.242;2023-02-22T16:47:17;4.10;;;2.90;;
14125;SDS011;7141;49.484;11.242;2023-02-22T16:49:46;3.50;;;3.20;;
14125;SDS011;7141;49.484;11.242;2023-02-22T16:52:16;4.33;;;3.30;;